Capitol Logistics 104


PANC
Ted Stevens Anchorage International Airport
Anchorage, Alaska, US
KSEA
Seattle-Tacoma International Airport
Seattle, Washington, US

Route Details

Aircraft Information
Primary: Boeing 747-400BCF
Backup: Boeing 777-200LRF
Route Data
Distance: 1257nm
Sched. Duration: 3h 29m
Avg. Duration: 2h 84m (-45m)
Times Flown: 17
Recm'd Route: NOEND4 NOEND LAIRE BKA DUGGS YYJ MARNR7
Planned Altitude: 33,000ft
Origin Wx: PANC 222053Z 35005KT 10SM CLR 02/M07 A3045 RMK AO2 SLP312 T00171072 53001
Dest. Wx: KSEA 222056Z VRB03KT 10SM SCT024 BKN250 12/04 A3039 RMK AO2 T01170039
Notes:

Financial History
Total Freight: 2,335,975lbs
Average Load: 137,410lbs/flt
Fuel Used: 836,507lbs
Avg. Fuel Used: 49,206lbs/flt
Fuel Expense: $1,042,429
Avg. Fuel Expense: $61,319
Avg. Fuel Cost: $1.25/lbs
Total Gross Income: $3,037,123
Pilot Pay: $3,403
Total Expenses: $328,893
Total Revenue: $1,654,257
Average Revenue: $178,654.28